createdAt,value
2019-05-19T00:01:48.302Z,12.20
2019-05-19T00:04:16.706Z,12.30
2019-05-19T00:06:47.890Z,12.20
2019-05-19T00:09:19.029Z,12.20
2019-05-19T00:11:47.419Z,12.20
2019-05-19T00:14:18.765Z,12.10
2019-05-19T00:16:47.403Z,12.00
2019-05-19T00:19:26.259Z,11.90
2019-05-19T00:21:46.392Z,11.80
2019-05-19T00:24:14.862Z,11.80
2019-05-19T00:26:43.510Z,11.70
2019-05-19T00:29:11.914Z,11.60
2019-05-19T00:31:40.337Z,11.60
2019-05-19T00:34:11.395Z,11.60
2019-05-19T00:36:48.272Z,11.60
2019-05-19T00:39:18.310Z,11.50
2019-05-19T00:41:46.714Z,11.40
2019-05-19T00:44:15.167Z,11.40
2019-05-19T00:46:43.850Z,11.40
2019-05-19T00:49:14.957Z,11.40
2019-05-19T00:51:44.906Z,11.40
2019-05-19T00:54:16.047Z,11.40
2019-05-19T00:56:46.936Z,11.40
2019-05-19T00:59:19.727Z,11.30
2019-05-19T01:01:50.941Z,11.20
2019-05-19T01:04:20.966Z,11.10
2019-05-19T01:06:49.363Z,11.00
2019-05-19T01:09:17.845Z,11.00
2019-05-19T01:11:49.182Z,10.90
2019-05-19T01:14:19.217Z,10.80
2019-05-19T01:16:48.521Z,10.80
2019-05-19T01:19:18.549Z,10.70
2019-05-19T01:21:48.599Z,10.70
2019-05-19T01:24:20.360Z,10.60
2019-05-19T01:26:49.178Z,10.70
2019-05-19T01:29:17.576Z,10.70
2019-05-19T01:31:48.874Z,10.70
2019-05-19T01:34:19.980Z,10.60
2019-05-19T01:36:58.694Z,10.60
2019-05-19T01:39:31.477Z,10.60
2019-05-19T01:42:01.728Z,10.60
2019-05-19T01:44:30.384Z,10.50
2019-05-19T01:46:58.771Z,10.40
2019-05-19T01:49:27.421Z,10.40
2019-05-19T01:52:03.082Z,10.40
2019-05-19T01:54:33.121Z,10.40
2019-05-19T01:57:01.535Z,10.50
2019-05-19T01:59:31.807Z,10.50
2019-05-19T02:02:00.215Z,10.50
2019-05-19T02:04:33.668Z,10.50
2019-05-19T02:07:05.065Z,10.50
2019-05-19T02:09:35.936Z,10.50
2019-05-19T02:12:04.407Z,10.50
2019-05-19T02:14:34.451Z,10.60
2019-05-19T02:17:07.325Z,10.60
2019-05-19T02:19:40.467Z,10.60
2019-05-19T02:22:13.410Z,10.70
2019-05-19T02:24:45.228Z,10.70
2019-05-19T02:27:13.617Z,10.70
2019-05-19T02:29:42.014Z,10.60
2019-05-19T02:32:15.802Z,10.60
2019-05-19T02:34:46.941Z,10.50
2019-05-19T02:37:16.982Z,10.50
2019-05-19T02:39:48.193Z,10.50
2019-05-19T02:42:19.692Z,10.50
2019-05-19T02:44:51.150Z,10.40
2019-05-19T02:47:24.296Z,10.50
2019-05-19T02:49:55.107Z,10.50
2019-05-19T02:52:26.077Z,10.50
2019-05-19T02:54:59.075Z,10.40
2019-05-19T02:57:31.160Z,10.50
2019-05-19T03:00:00.694Z,10.50
2019-05-19T03:02:29.065Z,10.40
2019-05-19T03:07:39.990Z,10.40
2019-05-19T03:10:11.793Z,10.30
2019-05-19T03:12:43.186Z,10.30
2019-05-19T03:15:13.143Z,10.30
2019-05-19T03:17:41.556Z,10.30
2019-05-19T03:20:10.344Z,10.30
2019-05-19T03:22:38.750Z,10.30
2019-05-19T03:25:09.091Z,10.30
2019-05-19T03:27:39.137Z,10.20
2019-05-19T03:30:27.500Z,10.30
2019-05-19T03:32:57.600Z,10.30
2019-05-19T03:35:27.229Z,10.30
2019-05-19T03:37:57.338Z,10.30
2019-05-19T03:40:25.972Z,10.30
2019-05-19T03:42:54.388Z,10.40
2019-05-19T03:45:26.769Z,10.50
2019-05-19T03:47:55.401Z,10.50
2019-05-19T03:50:26.758Z,10.60
2019-05-19T03:52:55.169Z,10.70
2019-05-19T03:55:26.230Z,10.80
2019-05-19T03:57:56.270Z,10.80
2019-05-19T04:00:26.204Z,10.90
2019-05-19T04:02:54.609Z,10.90
2019-05-19T04:05:22.999Z,10.90
2019-05-19T04:07:51.471Z,10.90
2019-05-19T04:10:21.630Z,11.00
2019-05-19T04:12:53.058Z,11.00
2019-05-19T04:15:21.750Z,11.10
2019-05-19T04:17:50.145Z,11.10
2019-05-19T04:20:18.850Z,11.10
2019-05-19T04:22:47.253Z,11.00
2019-05-19T04:25:15.790Z,11.00
2019-05-19T04:27:44.184Z,11.00
2019-05-19T04:30:16.747Z,11.10
2019-05-19T04:32:42.844Z,11.10
2019-05-19T04:35:11.370Z,11.10
2019-05-19T04:37:39.801Z,11.20
2019-05-19T04:40:09.076Z,11.20
2019-05-19T04:42:37.695Z,11.30
2019-05-19T04:45:07.640Z,11.30
2019-05-19T04:47:36.026Z,11.40
2019-05-19T04:50:07.323Z,11.50
2019-05-19T04:52:35.724Z,11.50
2019-05-19T04:55:07.202Z,11.50
2019-05-19T04:57:38.523Z,11.50
2019-05-19T05:00:09.873Z,11.50
2019-05-19T05:02:38.270Z,11.40
2019-05-19T05:05:09.570Z,11.30
2019-05-19T05:07:37.968Z,11.40
2019-05-19T05:10:06.696Z,11.40
2019-05-19T05:12:35.345Z,11.50
2019-05-19T05:15:09.206Z,11.50
2019-05-19T05:17:40.613Z,11.50
2019-05-19T05:20:12.749Z,11.60
2019-05-19T05:22:41.141Z,11.60
2019-05-19T05:25:13.729Z,11.70
2019-05-19T05:27:45.205Z,11.80
2019-05-19T05:30:16.370Z,11.80
2019-05-19T05:32:44.770Z,11.80
2019-05-19T05:35:16.784Z,11.90
2019-05-19T05:37:45.170Z,11.90
2019-05-19T05:40:15.495Z,11.90
2019-05-19T05:42:49.557Z,12.00
2019-05-19T05:45:18.249Z,12.00
2019-05-19T05:47:46.705Z,12.10
2019-05-19T05:50:16.961Z,12.10
2019-05-19T05:52:48.377Z,12.20
2019-05-19T05:55:17.026Z,12.40
2019-05-19T05:57:47.300Z,12.50
2019-05-19T06:00:18.992Z,12.70
2019-05-19T06:02:50.344Z,12.80
2019-05-19T06:05:18.976Z,13.00
2019-05-19T06:07:49.017Z,13.30
2019-05-19T06:10:17.778Z,13.60
2019-05-19T06:12:46.169Z,14.00
2019-05-19T06:15:14.621Z,14.20
2019-05-19T06:17:43.050Z,14.40
2019-05-19T06:20:13.271Z,14.50
2019-05-19T06:22:55.259Z,14.90
2019-05-19T06:25:14.963Z,15.20
2019-05-19T06:27:43.581Z,15.30
2019-05-19T06:30:13.595Z,15.50
2019-05-19T06:32:55.861Z,15.50
2019-05-19T06:35:25.090Z,15.60
2019-05-19T06:37:53.516Z,15.80
2019-05-19T06:40:23.481Z,16.00
2019-05-19T06:42:57.516Z,16.00
2019-05-19T06:45:25.916Z,15.90
2019-05-19T06:47:55.453Z,16.20
2019-05-19T06:50:24.358Z,16.40
2019-05-19T06:53:11.226Z,16.40
2019-05-19T06:55:26.868Z,16.40
2019-05-19T06:57:58.322Z,16.50
2019-05-19T07:00:28.598Z,16.60
2019-05-19T07:02:59.838Z,16.70
2019-05-19T07:05:30.947Z,16.80
2019-05-19T07:07:59.388Z,17.30
2019-05-19T07:10:29.427Z,18.20
2019-05-19T07:13:00.613Z,19.40
2019-05-19T07:15:29.331Z,21.00
2019-05-19T07:18:03.677Z,22.70
2019-05-19T07:20:32.319Z,23.50
2019-05-19T07:23:03.236Z,24.20
2019-05-19T07:25:36.141Z,24.00
2019-05-19T07:28:13.192Z,24.00
2019-05-19T07:30:41.588Z,24.20
2019-05-19T07:33:12.919Z,24.60
2019-05-19T07:35:50.244Z,24.60
2019-05-19T07:38:18.874Z,24.50
2019-05-19T07:40:48.834Z,23.90
2019-05-19T07:43:18.516Z,23.40
2019-05-19T07:45:49.784Z,23.40
2019-05-19T07:48:18.246Z,23.70
2019-05-19T07:50:50.905Z,23.10
2019-05-19T07:53:22.993Z,22.80
2019-05-19T07:55:53.482Z,22.70
2019-05-19T07:58:24.914Z,23.00
2019-05-19T08:00:56.285Z,23.70
2019-05-19T08:03:24.927Z,24.60
2019-05-19T08:05:53.309Z,25.30
2019-05-19T08:08:21.713Z,26.40
2019-05-19T08:10:57.246Z,27.00
2019-05-19T08:13:27.530Z,27.30
2019-05-19T08:15:55.913Z,27.10
2019-05-19T08:18:25.977Z,26.40
2019-05-19T08:20:54.381Z,26.80
2019-05-19T08:23:22.822Z,26.90
2019-05-19T08:25:51.218Z,27.10
2019-05-19T08:28:22.582Z,26.60
2019-05-19T08:30:52.497Z,26.40
2019-05-19T08:33:28.137Z,25.80
2019-05-19T08:36:04.815Z,26.10
2019-05-19T08:38:33.238Z,26.70
2019-05-19T08:41:01.665Z,26.80
2019-05-19T08:43:33.027Z,27.10
2019-05-19T08:46:06.019Z,27.10
2019-05-19T08:48:34.650Z,27.50
2019-05-19T08:51:06.219Z,27.20
2019-05-19T08:53:41.433Z,26.90
2019-05-19T08:56:12.822Z,27.00
2019-05-19T08:58:43.904Z,26.30
2019-05-19T09:01:12.313Z,25.60
2019-05-19T09:03:40.948Z,25.10
2019-05-19T09:06:09.329Z,24.50
2019-05-19T09:08:39.365Z,24.20
2019-05-19T09:11:07.793Z,23.90
2019-05-19T09:13:36.419Z,23.90
2019-05-19T09:16:06.603Z,23.60
2019-05-19T09:18:42.233Z,23.20
2019-05-19T09:21:13.545Z,23.80
2019-05-19T09:23:44.910Z,24.30
2019-05-19T09:26:19.187Z,24.80
2019-05-19T09:28:47.586Z,24.60
2019-05-19T09:31:18.945Z,25.20
2019-05-19T09:33:50.149Z,25.30
2019-05-19T09:36:24.770Z,25.70
2019-05-19T09:38:58.861Z,26.30
2019-05-19T09:41:27.249Z,26.50
2019-05-19T09:43:55.951Z,26.30
2019-05-19T09:46:34.717Z,26.20
2019-05-19T09:49:20.943Z,26.70
2019-05-19T09:51:49.343Z,27.50
2019-05-19T09:54:17.741Z,27.80
2019-05-19T09:56:46.128Z,27.50
2019-05-19T09:59:17.254Z,27.80
2019-05-19T10:01:45.638Z,27.60
2019-05-19T10:04:22.983Z,26.40
2019-05-19T10:06:55.508Z,26.80
2019-05-19T10:09:45.067Z,27.50
2019-05-19T10:12:15.093Z,27.90
2019-05-19T10:14:45.120Z,27.50
2019-05-19T10:17:13.505Z,27.80
2019-05-19T10:19:42.314Z,28.50
2019-05-19T10:22:12.377Z,28.70
2019-05-19T10:24:57.497Z,30.00
2019-05-19T10:27:12.794Z,30.20
2019-05-19T10:29:47.022Z,31.00
2019-05-19T10:32:15.498Z,31.60
2019-05-19T10:34:46.913Z,31.90
2019-05-19T10:37:21.325Z,32.00
2019-05-19T10:39:59.637Z,32.50
2019-05-19T10:42:29.710Z,31.70
2019-05-19T10:45:01.024Z,31.30
2019-05-19T10:47:29.657Z,31.00
2019-05-19T10:50:03.971Z,30.90
2019-05-19T10:52:36.791Z,30.90
2019-05-19T10:55:10.921Z,30.30
2019-05-19T10:57:40.953Z,29.20
2019-05-19T11:00:11.713Z,28.70
2019-05-19T11:02:40.111Z,28.10
2019-05-19T11:05:11.204Z,27.70
2019-05-19T11:07:38.974Z,27.50
2019-05-19T11:10:09.165Z,27.50
2019-05-19T11:12:37.558Z,27.60
2019-05-19T11:15:08.641Z,28.10
2019-05-19T11:17:38.913Z,29.50
2019-05-19T11:20:08.921Z,30.90
2019-05-19T11:22:42.243Z,31.00
2019-05-19T11:25:12.421Z,31.60
2019-05-19T11:27:40.805Z,32.30
2019-05-19T11:30:09.265Z,33.20
2019-05-19T11:32:37.661Z,32.60
2019-05-19T11:35:12.462Z,32.50
2019-05-19T11:37:43.494Z,32.20
2019-05-19T11:40:12.014Z,31.90
2019-05-19T11:42:46.963Z,32.10
2019-05-19T11:45:19.822Z,32.10
2019-05-19T11:47:52.557Z,31.30
2019-05-19T11:50:20.935Z,30.80
2019-05-19T11:52:49.314Z,29.60
2019-05-19T11:55:17.705Z,29.30
2019-05-19T11:57:46.095Z,28.70
2019-05-19T12:00:17.636Z,28.20
2019-05-19T12:02:46.281Z,28.40
2019-05-19T12:05:16.548Z,28.40
2019-05-19T12:07:45.004Z,28.20
2019-05-19T12:10:16.485Z,28.10
2019-05-19T12:12:46.406Z,27.70
2019-05-19T12:15:17.886Z,27.40
2019-05-19T12:17:49.574Z,26.90
2019-05-19T12:20:22.800Z,26.50
2019-05-19T12:22:51.217Z,26.00
2019-05-19T12:25:21.156Z,25.30
2019-05-19T12:27:49.541Z,24.80
2019-05-19T12:30:21.023Z,24.80
2019-05-19T12:32:50.941Z,24.90
2019-05-19T12:35:21.787Z,24.90
2019-05-19T12:37:50.165Z,25.50
2019-05-19T12:40:22.766Z,26.20
2019-05-19T12:42:51.247Z,26.80
2019-05-19T12:45:20.973Z,27.00
2019-05-19T12:47:55.446Z,27.60
2019-05-19T12:50:29.542Z,28.10
2019-05-19T12:52:58.894Z,28.00
2019-05-19T12:55:27.277Z,28.20
2019-05-19T12:57:55.682Z,28.50
2019-05-19T13:00:26.725Z,28.60
2019-05-19T13:02:58.978Z,28.60
2019-05-19T13:05:29.008Z,28.40
2019-05-19T13:07:57.405Z,28.30
2019-05-19T13:10:29.186Z,28.30
2019-05-19T13:13:00.621Z,28.00
2019-05-19T13:15:33.663Z,28.10
2019-05-19T13:18:03.590Z,28.40
2019-05-19T13:20:35.049Z,28.50
2019-05-19T13:23:03.447Z,28.80
2019-05-19T13:25:34.754Z,28.70
2019-05-19T13:28:03.378Z,28.70
2019-05-19T13:30:35.003Z,28.70
2019-05-19T13:33:05.876Z,28.90
2019-05-19T13:35:36.752Z,29.00
2019-05-19T13:38:05.147Z,29.20
2019-05-19T13:40:36.379Z,29.60
2019-05-19T13:43:13.197Z,29.60
2019-05-19T13:45:44.438Z,29.30
2019-05-19T13:48:15.839Z,29.50
2019-05-19T13:50:50.013Z,29.80
2019-05-19T13:53:21.090Z,30.00
2019-05-19T13:55:49.535Z,30.20
2019-05-19T13:58:19.589Z,30.90
2019-05-19T14:00:50.930Z,30.50
2019-05-19T14:03:22.487Z,30.80
2019-05-19T14:05:52.559Z,30.60
2019-05-19T14:08:20.970Z,30.60
2019-05-19T14:10:54.901Z,31.20
2019-05-19T14:13:23.306Z,31.90
2019-05-19T14:15:51.701Z,33.10
2019-05-19T14:18:31.413Z,33.80
2019-05-19T14:20:59.806Z,33.80
2019-05-19T14:23:31.373Z,33.50
2019-05-19T14:26:00.019Z,33.40
2019-05-19T14:28:31.333Z,33.20
2019-05-19T14:31:01.262Z,33.10
2019-05-19T14:33:29.999Z,33.50
2019-05-19T14:36:01.081Z,33.70
2019-05-19T14:38:29.898Z,34.20
2019-05-19T14:41:00.993Z,33.80
2019-05-19T14:43:33.579Z,33.70
2019-05-19T14:46:03.510Z,33.50
2019-05-19T14:48:31.906Z,34.10
2019-05-19T14:51:04.759Z,34.60
2019-05-19T14:53:35.625Z,35.30
2019-05-19T14:56:05.014Z,35.20
2019-05-19T14:58:39.050Z,34.80
2019-05-19T15:01:10.575Z,34.70
2019-05-19T15:03:39.261Z,34.60
2019-05-19T15:06:14.871Z,35.20
2019-05-19T15:08:45.958Z,35.20
2019-05-19T15:11:14.425Z,35.30
2019-05-19T15:13:42.822Z,35.20
2019-05-19T15:16:12.850Z,34.80
2019-05-19T15:18:44.249Z,34.60
2019-05-19T15:21:15.453Z,34.90
2019-05-19T15:23:48.420Z,34.80
2019-05-19T15:26:17.054Z,34.50
2019-05-19T15:28:47.219Z,34.50
2019-05-19T15:31:16.886Z,35.00
2019-05-19T15:33:45.288Z,34.90
2019-05-19T15:36:16.581Z,34.50
2019-05-19T15:38:55.318Z,34.70
2019-05-19T15:41:23.726Z,34.20
2019-05-19T15:43:55.177Z,33.80
2019-05-19T15:46:29.768Z,33.60
2019-05-19T15:49:05.921Z,33.00
2019-05-19T15:51:38.122Z,32.90
2019-05-19T15:54:07.802Z,33.20
2019-05-19T15:56:38.843Z,33.50
2019-05-19T15:59:07.288Z,33.30
2019-05-19T16:01:41.133Z,33.60
2019-05-19T16:04:15.324Z,33.30
2019-05-19T16:06:45.383Z,32.80
2019-05-19T16:09:16.498Z,32.30
2019-05-19T16:11:48.499Z,32.50
2019-05-19T16:14:19.937Z,32.60
2019-05-19T16:16:51.545Z,32.40
2019-05-19T16:19:22.890Z,32.20
2019-05-19T16:22:00.407Z,31.40
2019-05-19T16:24:33.457Z,29.90
2019-05-19T16:27:01.857Z,28.00
2019-05-19T16:29:33.009Z,27.30
2019-05-19T16:32:07.629Z,27.60
2019-05-19T16:34:36.060Z,28.00
2019-05-19T16:37:08.714Z,27.80
2019-05-19T16:39:45.453Z,27.60
2019-05-19T16:42:16.729Z,27.70
2019-05-19T16:44:47.877Z,27.40
2019-05-19T16:47:20.201Z,26.60
2019-05-19T16:49:48.767Z,25.40
2019-05-19T16:52:18.700Z,24.20
2019-05-19T16:54:48.736Z,23.60
2019-05-19T16:57:18.758Z,23.10
2019-05-19T16:59:49.801Z,22.60
2019-05-19T17:02:20.639Z,22.10
2019-05-19T17:04:50.902Z,21.10
2019-05-19T17:07:19.296Z,20.20
2019-05-19T17:09:50.619Z,19.30
2019-05-19T17:12:19.005Z,18.70
2019-05-19T17:14:50.317Z,18.20
2019-05-19T17:17:21.634Z,17.80
2019-05-19T17:19:49.976Z,17.40
2019-05-19T17:22:21.144Z,17.10
2019-05-19T17:24:52.657Z,16.90
2019-05-19T17:27:21.030Z,16.70
2019-05-19T17:29:52.142Z,16.70
2019-05-19T17:32:23.049Z,16.50
2019-05-19T17:34:55.076Z,16.50
2019-05-19T17:37:23.497Z,16.60
2019-05-19T17:39:54.815Z,16.50
2019-05-19T17:42:23.213Z,16.40
2019-05-19T17:44:57.817Z,16.30
2019-05-19T17:47:34.050Z,16.30
2019-05-19T17:49:55.637Z,16.30
2019-05-19T17:52:28.225Z,16.40
2019-05-19T17:54:56.620Z,16.60
2019-05-19T17:57:25.506Z,16.70
2019-05-19T17:59:57.307Z,16.80
2019-05-19T18:02:32.226Z,16.90
2019-05-19T18:05:03.677Z,16.90
2019-05-19T18:07:34.774Z,17.00
2019-05-19T18:10:06.460Z,17.00
2019-05-19T18:12:38.597Z,17.00
2019-05-19T18:15:10.310Z,16.90
2019-05-19T18:17:41.389Z,16.80
2019-05-19T18:20:23.520Z,16.70
2019-05-19T18:22:48.426Z,16.70
2019-05-19T18:25:16.793Z,16.60
2019-05-19T18:27:48.157Z,16.60
2019-05-19T18:30:20.883Z,16.60
2019-05-19T18:32:49.515Z,16.60
2019-05-19T18:35:25.566Z,16.60
2019-05-19T18:37:53.953Z,16.70
2019-05-19T18:40:25.118Z,16.70
2019-05-19T18:42:56.182Z,16.80
2019-05-19T18:45:24.599Z,16.80
2019-05-19T18:47:58.039Z,16.80
2019-05-19T18:50:26.694Z,16.80
2019-05-19T18:53:00.846Z,16.70
2019-05-19T18:55:32.421Z,16.60
2019-05-19T18:58:06.651Z,16.50
2019-05-19T19:00:38.177Z,16.40
2019-05-19T19:03:09.348Z,16.30
2019-05-19T19:05:40.251Z,16.30
2019-05-19T19:08:08.920Z,16.10
2019-05-19T19:10:37.298Z,15.90
2019-05-19T19:13:07.477Z,15.70
2019-05-19T19:15:35.909Z,15.50
2019-05-19T19:18:04.354Z,15.30
2019-05-19T19:20:34.572Z,15.10
2019-05-19T19:23:05.796Z,15.00
2019-05-19T19:25:37.438Z,14.80
2019-05-19T19:28:14.119Z,14.70
2019-05-19T19:30:44.057Z,14.60
2019-05-19T19:33:12.442Z,14.60
2019-05-19T19:35:42.607Z,14.50
2019-05-19T19:38:13.468Z,14.50
2019-05-19T19:40:42.265Z,14.50
2019-05-19T19:43:14.421Z,14.50
2019-05-19T19:45:42.830Z,14.50
2019-05-19T19:48:14.120Z,14.40
2019-05-19T19:50:42.509Z,14.40
2019-05-19T19:53:12.613Z,14.30
2019-05-19T19:55:41.181Z,14.30
2019-05-19T19:58:11.250Z,14.30
2019-05-19T20:00:44.082Z,14.30
2019-05-19T20:03:13.341Z,14.30
2019-05-19T20:05:43.017Z,14.20
2019-05-19T20:08:11.457Z,14.10
2019-05-19T20:10:43.690Z,14.00
2019-05-19T20:13:20.793Z,14.00
2019-05-19T20:15:50.347Z,13.90
2019-05-19T20:18:20.643Z,13.90
2019-05-19T20:20:49.026Z,13.80
2019-05-19T20:23:20.137Z,13.80
2019-05-19T20:25:51.632Z,13.70
2019-05-19T20:28:23.426Z,13.60
2019-05-19T20:30:52.073Z,13.60
2019-05-19T20:33:20.458Z,13.60
2019-05-19T20:35:49.120Z,13.50
2019-05-19T20:38:17.535Z,13.50
2019-05-19T20:40:46.222Z,13.50
2019-05-19T20:43:14.649Z,13.40
2019-05-19T20:45:43.082Z,13.40
2019-05-19T20:48:11.478Z,13.30
2019-05-19T20:50:40.128Z,13.30
2019-05-19T20:53:10.931Z,13.30
2019-05-19T20:55:39.334Z,13.30
2019-05-19T20:58:09.374Z,13.30
2019-05-19T21:00:50.214Z,13.20
2019-05-19T21:03:09.557Z,13.20
2019-05-19T21:05:37.960Z,13.10
2019-05-19T21:08:15.859Z,13.10
2019-05-19T21:10:47.340Z,13.10
2019-05-19T21:13:15.728Z,13.10
2019-05-19T21:15:47.966Z,13.10
2019-05-19T21:18:20.813Z,13.00
2019-05-19T21:20:49.547Z,13.10
2019-05-19T21:23:17.940Z,13.10
2019-05-19T21:25:47.990Z,13.20
2019-05-19T21:28:16.614Z,13.30
2019-05-19T21:30:46.537Z,13.40
2019-05-19T21:33:14.937Z,13.50
2019-05-19T21:35:46.269Z,13.60
2019-05-19T21:38:14.873Z,13.70
2019-05-19T21:40:46.214Z,13.70
2019-05-19T21:43:14.636Z,13.80
2019-05-19T21:45:43.030Z,13.90
2019-05-19T21:48:18.482Z,13.90
2019-05-19T21:50:47.105Z,13.90
2019-05-19T21:53:15.512Z,13.80
2019-05-19T21:55:43.889Z,13.70
2019-05-19T21:58:18.247Z,13.60
2019-05-19T22:00:51.757Z,13.40
2019-05-19T22:03:22.761Z,13.20
2019-05-19T22:05:53.270Z,13.00
2019-05-19T22:08:24.381Z,12.90
2019-05-19T22:10:54.218Z,12.80
2019-05-19T22:13:22.611Z,12.70
2019-05-19T22:16:11.705Z,12.60
2019-05-19T22:18:29.239Z,12.70
2019-05-19T22:21:04.235Z,12.60
2019-05-19T22:23:32.624Z,12.50
2019-05-19T22:26:01.035Z,12.50
2019-05-19T22:28:30.484Z,12.40
2019-05-19T22:31:04.581Z,12.30
2019-05-19T22:33:32.974Z,12.20
2019-05-19T22:36:01.367Z,12.10
2019-05-19T22:38:34.299Z,12.00
2019-05-19T22:41:02.695Z,11.80
2019-05-19T22:43:33.918Z,11.70
2019-05-19T22:46:04.135Z,11.70
2019-05-19T22:48:35.942Z,11.60
2019-05-19T22:51:07.359Z,11.50
2019-05-19T22:53:38.461Z,11.40
2019-05-19T22:56:09.829Z,11.30
2019-05-19T22:58:41.673Z,11.20
2019-05-19T23:01:13.049Z,11.30
2019-05-19T23:03:41.446Z,11.40
2019-05-19T23:06:12.861Z,11.50
2019-05-19T23:08:41.556Z,11.70
2019-05-19T23:11:10.253Z,11.90
2019-05-19T23:13:42.882Z,12.10
2019-05-19T23:16:15.928Z,12.20
2019-05-19T23:18:49.912Z,12.40
2019-05-19T23:21:21.356Z,12.50
2019-05-19T23:23:49.757Z,12.60
2019-05-19T23:26:24.934Z,12.80
2019-05-19T23:28:53.329Z,12.90
2019-05-19T23:31:26.143Z,13.00
2019-05-19T23:33:55.789Z,13.00
2019-05-19T23:36:25.838Z,13.00
2019-05-19T23:38:56.898Z,13.00
2019-05-19T23:41:25.562Z,12.90
2019-05-19T23:43:53.947Z,13.00
2019-05-19T23:46:22.331Z,13.00
2019-05-19T23:48:50.972Z,13.00
2019-05-19T23:51:21.882Z,13.00
2019-05-19T23:53:50.722Z,12.90
2019-05-19T23:56:22.076Z,13.00
2019-05-19T23:58:56.114Z,13.00
